Time;durP1;ratioP1;P1;durP2;ratioP2;P2;SDS_P1;SDS_P2;PMS_P1;PMS_P2;Temp;Humidity;BMP_temperature;BMP_pressure;BME280_temperature;BME280_humidity;BME280_pressure;Samples;Min_cycle;Max_cycle;Signal;HPM_P1;HPM_P2
2021/03/17 00:04:55;;;;;;;20.15;9.40;;;5.00;99.90;;;;;;6691660;88;20178;-76
2021/03/17 00:14:55;;;;;;;18.15;8.30;;;5.00;99.90;;;;;;6693350;88;20185;-76
2021/03/17 00:24:56;;;;;;;18.58;8.60;;;4.90;99.90;;;;;;6692394;88;20356;-76
2021/03/17 00:34:56;;;;;;;21.35;9.30;;;5.00;99.90;;;;;;6687606;88;20189;-77
2021/03/17 00:44:57;;;;;;;22.10;10.45;;;5.10;99.90;;;;;;6688241;88;20790;-77
2021/03/17 00:54:57;;;;;;;27.50;12.18;;;5.00;99.90;;;;;;6688024;88;20183;-77
2021/03/17 01:04:58;;;;;;;29.45;12.27;;;5.00;99.90;;;;;;6688847;88;20568;-77
2021/03/17 01:14:59;;;;;;;27.52;11.77;;;5.10;99.90;;;;;;6687519;88;21044;-76
2021/03/17 01:24:59;;;;;;;32.28;13.77;;;5.00;99.90;;;;;;6691037;88;20494;-76
2021/03/17 01:35:00;;;;;;;35.53;12.98;;;4.90;99.90;;;;;;6694298;88;20698;-76
2021/03/17 01:45:00;;;;;;;31.23;12.63;;;4.90;99.90;;;;;;6686881;88;20223;-76
2021/03/17 01:55:03;;;;;;;28.38;11.02;;;4.90;99.90;;;;;;6691432;88;20726;-77
2021/03/17 02:05:13;;;;;;;24.27;10.10;;;4.90;99.90;;;;;;6689713;88;20220;-77
2021/03/17 02:15:19;;;;;;;31.17;11.70;;;4.90;99.90;;;;;;6690679;88;20196;-77
2021/03/17 02:25:34;;;;;;;26.00;11.35;;;4.80;99.90;;;;;;6690123;88;21171;-76
2021/03/17 02:35:38;;;;;;;33.83;13.55;;;4.80;99.90;;;;;;6690381;88;20227;-77
2021/03/17 02:45:44;;;;;;;33.85;14.57;;;4.90;99.90;;;;;;6688234;88;20198;-76
2021/03/17 02:55:50;;;;;;;35.33;15.33;;;4.80;99.90;;;;;;6687647;88;20190;-77
2021/03/17 03:05:53;;;;;;;36.47;16.00;;;4.80;99.90;;;;;;6687075;88;20199;-75
2021/03/17 03:15:55;;;;;;;34.75;14.75;;;4.80;99.90;;;;;;6687802;88;20209;-76
2021/03/17 03:25:57;;;;;;;35.47;14.52;;;4.80;99.90;;;;;;6687512;88;20308;-76
2021/03/17 03:35:57;;;;;;;28.25;13.20;;;4.70;99.90;;;;;;6689262;88;20203;-77
2021/03/17 03:45:58;;;;;;;34.95;14.30;;;4.80;99.90;;;;;;6688422;88;20219;-77
2021/03/17 03:56:13;;;;;;;34.45;15.55;;;4.60;99.90;;;;;;6689340;88;20191;-76
2021/03/17 04:06:16;;;;;;;32.80;15.63;;;4.60;99.90;;;;;;6687042;88;20238;-76
2021/03/17 04:16:21;;;;;;;35.63;14.90;;;4.60;99.90;;;;;;6687297;88;20228;-76
2021/03/17 04:26:23;;;;;;;32.42;15.13;;;4.60;99.90;;;;;;6688491;88;20360;-76
2021/03/17 04:36:26;;;;;;;34.70;15.20;;;4.40;99.90;;;;;;6687735;88;20202;-77
2021/03/17 04:46:27;;;;;;;37.63;15.57;;;4.30;99.90;;;;;;6686438;88;20654;-77
2021/03/17 04:56:29;;;;;;;37.85;14.60;;;4.30;99.90;;;;;;6688228;88;20208;-77
2021/03/17 05:06:31;;;;;;;28.27;13.43;;;4.30;99.90;;;;;;6688148;89;20200;-77
2021/03/17 05:16:34;;;;;;;30.62;14.68;;;4.40;99.90;;;;;;6687693;88;20753;-76
2021/03/17 05:26:36;;;;;;;31.80;14.27;;;4.40;99.90;;;;;;6687319;88;20878;-76
2021/03/17 05:47:42;;;;;;;12.55;7.07;;;4.30;99.90;;;;;;6743887;88;20181;-78
2021/03/17 05:57:45;;;;;;;13.45;6.37;;;4.10;99.90;;;;;;6741510;88;20192;-76
2021/03/17 06:07:53;;;;;;;8.10;4.43;;;4.00;99.90;;;;;;6743933;88;20998;-79
2021/03/17 06:17:59;;;;;;;10.65;5.53;;;3.80;99.90;;;;;;6734291;88;20202;-80
2021/03/17 06:28:02;;;;;;;8.68;4.45;;;3.80;99.90;;;;;;6730393;88;20238;-79
2021/03/17 06:38:03;;;;;;;9.45;5.22;;;3.70;99.90;;;;;;6748259;88;20262;-79
2021/03/17 06:48:32;;;;;;;10.57;5.55;;;3.70;99.90;;;;;;6762443;88;20191;-79
2021/03/17 06:58:40;;;;;;;13.00;6.85;;;3.70;99.90;;;;;;6760710;88;20191;-78
2021/03/17 07:08:41;;;;;;;11.38;6.90;;;3.70;99.90;;;;;;6752025;88;20192;-78
2021/03/17 07:18:41;;;;;;;15.98;8.05;;;4.00;99.90;;;;;;6752837;87;20738;-77
2021/03/17 07:29:02;;;;;;;16.70;8.48;;;3.90;99.90;;;;;;6739225;88;20976;-76
2021/03/17 07:39:08;;;;;;;14.73;7.70;;;4.00;99.90;;;;;;6738406;88;20747;-77
2021/03/17 07:49:11;;;;;;;15.23;7.87;;;4.10;99.90;;;;;;6753207;88;20173;-77
2021/03/17 07:59:12;;;;;;;15.85;6.85;;;4.20;99.90;;;;;;6742360;88;20204;-79
2021/03/17 08:09:12;;;;;;;15.20;7.72;;;4.20;99.90;;;;;;6742494;88;20185;-76
2021/03/17 08:19:27;;;;;;;12.18;6.50;;;4.30;99.90;;;;;;6737403;88;20218;-75
2021/03/17 08:29:41;;;;;;;15.30;7.70;;;4.50;99.90;;;;;;6737853;88;20191;-75
2021/03/17 08:39:44;;;;;;;13.70;6.93;;;4.50;99.90;;;;;;6736391;88;20226;-75
2021/03/17 08:49:50;;;;;;;10.70;6.20;;;4.70;99.90;;;;;;6737171;88;20220;-74
2021/03/17 08:59:56;;;;;;;11.45;6.22;;;5.10;99.90;;;;;;6738404;88;20334;-75
2021/03/17 09:09:58;;;;;;;9.73;6.00;;;5.30;99.90;;;;;;6737284;88;21333;-75
2021/03/17 09:20:30;;;;;;;9.43;5.87;;;5.80;99.90;;;;;;6736118;88;20534;-76
2021/03/17 09:30:43;;;;;;;6.35;3.42;;;6.20;99.90;;;;;;6736431;88;20203;-75
2021/03/17 09:40:49;;;;;;;6.47;3.40;;;5.70;99.90;;;;;;6740889;88;20184;-75
2021/03/17 09:51:00;;;;;;;5.07;2.13;;;5.00;99.90;;;;;;6739823;88;20201;-76
2021/03/17 10:01:27;;;;;;;4.65;2.40;;;5.30;99.90;;;;;;6742661;88;20340;-75
2021/03/17 10:11:27;;;;;;;6.50;2.25;;;5.60;99.90;;;;;;6742482;88;20185;-74
2021/03/17 10:21:28;;;;;;;6.10;2.55;;;6.30;99.90;;;;;;6742956;88;20306;-76
2021/03/17 10:31:32;;;;;;;4.78;2.40;;;6.70;99.90;;;;;;6754783;88;20758;-76
2021/03/17 10:41:38;;;;;;;5.03;2.40;;;6.80;99.90;;;;;;6754485;87;20595;-77
2021/03/17 10:51:39;;;;;;;2.97;1.87;;;7.70;99.90;;;;;;6759778;87;20196;-76
2021/03/17 11:01:39;;;;;;;4.82;1.80;;;7.80;99.90;;;;;;6755654;87;20307;-76
2021/03/17 11:11:50;;;;;;;3.45;1.65;;;7.50;99.90;;;;;;6754020;87;20229;-77
2021/03/17 11:21:51;;;;;;;3.78;1.80;;;6.90;99.90;;;;;;6751473;87;20203;-77
2021/03/17 11:31:54;;;;;;;2.83;1.50;;;7.00;99.90;;;;;;6754999;88;20208;-76
2021/03/17 11:41:54;;;;;;;3.45;1.52;;;6.70;99.90;;;;;;6749516;88;20228;-76
2021/03/17 11:51:55;;;;;;;2.42;1.50;;;6.60;99.90;;;;;;6750642;88;20207;-75
2021/03/17 12:01:55;;;;;;;3.58;1.60;;;6.40;99.90;;;;;;6754032;77;20202;-76
2021/03/17 12:11:56;;;;;;;3.10;1.10;;;6.10;99.90;;;;;;6698963;88;20183;-76
2021/03/17 12:21:56;;;;;;;2.00;0.80;;;6.10;99.90;;;;;;6679236;88;20710;-75
2021/03/17 12:31:57;;;;;;;4.07;0.90;;;6.20;99.90;;;;;;6676237;88;20188;-75
2021/03/17 12:41:58;;;;;;;4.07;0.90;;;6.50;99.90;;;;;;6680068;88;20291;-75
2021/03/17 12:51:59;;;;;;;2.72;1.00;;;7.10;99.90;;;;;;6679314;88;20900;-76
2021/03/17 13:01:59;;;;;;;5.32;1.40;;;8.30;99.90;;;;;;6680124;88;20646;-74
2021/03/17 13:12:00;;;;;;;3.53;1.25;;;8.50;99.90;;;;;;6678986;88;20286;-74
2021/03/17 13:22:00;;;;;;;5.20;1.40;;;7.80;99.90;;;;;;6683040;88;20674;-75
2021/03/17 13:32:01;;;;;;;6.22;1.48;;;7.40;99.90;;;;;;6675107;88;20493;-74
2021/03/17 13:42:02;;;;;;;5.80;1.37;;;7.10;99.90;;;;;;6678186;88;20654;-74
2021/03/17 13:52:04;;;;;;;3.60;1.80;;;7.20;99.90;;;;;;6680214;88;20191;-75
2021/03/17 14:02:06;;;;;;;2.87;1.48;;;7.10;99.90;;;;;;6682451;88;20579;-74
2021/03/17 14:12:07;;;;;;;3.75;1.40;;;7.00;99.90;;;;;;6680245;88;20736;-73
2021/03/17 14:22:08;;;;;;;5.37;1.35;;;7.10;99.90;;;;;;6679524;88;20237;-73
2021/03/17 14:32:10;;;;;;;1.95;1.10;;;8.10;99.90;;;;;;6677411;88;20236;-73
2021/03/17 14:42:10;;;;;;;4.80;1.17;;;8.20;99.90;;;;;;6680884;88;20315;-74
2021/03/17 14:52:12;;;;;;;5.00;1.55;;;7.60;99.90;;;;;;6678993;88;20303;-73
2021/03/17 15:02:13;;;;;;;3.83;1.55;;;7.40;99.90;;;;;;6678532;88;20333;-73
2021/03/17 15:12:14;;;;;;;4.53;1.17;;;7.30;99.90;;;;;;6681252;88;20207;-72
2021/03/17 15:22:15;;;;;;;6.55;1.45;;;7.30;99.90;;;;;;6678812;88;20205;-72
2021/03/17 15:32:15;;;;;;;2.72;1.23;;;7.40;99.90;;;;;;6666458;88;20684;-72
2021/03/17 15:42:16;;;;;;;3.62;0.90;;;7.40;99.90;;;;;;6675958;88;20263;-72
2021/03/17 15:52:17;;;;;;;2.53;0.88;;;7.30;99.90;;;;;;6675345;88;20650;-72
2021/03/17 16:02:17;;;;;;;4.30;1.07;;;7.20;99.90;;;;;;6676301;88;20321;-72
2021/03/17 16:12:18;;;;;;;2.25;0.80;;;7.70;99.90;;;;;;6673655;88;21006;-72
2021/03/17 16:22:18;;;;;;;2.35;1.00;;;7.90;99.90;;;;;;6670308;88;20207;-72
2021/03/17 16:32:19;;;;;;;4.18;1.17;;;7.40;99.90;;;;;;6671390;88;20893;-71
2021/03/17 16:42:21;;;;;;;2.28;1.15;;;7.20;99.90;;;;;;6676539;88;20187;-71
2021/03/17 16:52:21;;;;;;;4.65;1.23;;;7.20;99.90;;;;;;6675466;88;20754;-71
2021/03/17 17:02:22;;;;;;;4.20;0.80;;;7.00;99.90;;;;;;6671050;88;20195;-71
2021/03/17 17:12:22;;;;;;;4.28;1.17;;;7.10;99.90;;;;;;6665373;88;20294;-75
2021/03/17 17:22:23;;;;;;;3.85;1.10;;;7.00;99.90;;;;;;6675301;88;20211;-73
2021/03/17 17:32:23;;;;;;;3.65;1.00;;;6.90;99.90;;;;;;6677870;88;20229;-74
2021/03/17 17:42:24;;;;;;;3.80;1.20;;;6.50;99.90;;;;;;6676778;88;21066;-73
2021/03/17 17:52:25;;;;;;;3.07;1.20;;;6.60;99.90;;;;;;6680388;88;20613;-76
2021/03/17 18:12:29;;;;;;;5.50;1.20;;;6.40;99.90;;;;;;6694664;88;20218;-79
2021/03/17 18:22:29;;;;;;;4.00;1.77;;;6.20;99.90;;;;;;6685455;88;20205;-78
2021/03/17 18:32:30;;;;;;;4.70;1.65;;;6.20;99.90;;;;;;6709651;88;20202;-80
2021/03/17 18:42:30;;;;;;;5.87;1.58;;;6.00;99.90;;;;;;6700831;88;20212;-81
2021/03/17 19:02:35;;;;;;;5.03;1.92;;;5.90;99.90;;;;;;6731156;88;20565;-80
2021/03/17 19:12:36;;;;;;;6.18;2.00;;;5.80;99.90;;;;;;6722246;88;20266;-79
2021/03/17 19:22:37;;;;;;;5.30;2.17;;;5.70;99.90;;;;;;6719259;88;20193;-79
2021/03/17 19:32:37;;;;;;;5.30;2.37;;;5.40;99.90;;;;;;6713838;88;20189;-76
2021/03/17 19:42:38;;;;;;;9.75;3.70;;;5.40;99.90;;;;;;6702137;88;20182;-79
2021/03/17 19:52:39;;;;;;;10.38;4.35;;;5.30;99.90;;;;;;6703577;88;20505;-77
2021/03/17 20:02:40;;;;;;;10.68;3.72;;;5.10;99.90;;;;;;6702245;88;20299;-77
2021/03/17 20:12:42;;;;;;;9.02;2.83;;;5.10;99.90;;;;;;6696267;88;20214;-76
2021/03/17 20:22:43;;;;;;;7.95;2.35;;;5.10;99.90;;;;;;6692449;88;20234;-77
2021/03/17 20:32:45;;;;;;;5.78;2.15;;;5.10;99.90;;;;;;6706633;88;20203;-79
2021/03/17 20:42:46;;;;;;;4.45;2.03;;;5.00;99.90;;;;;;6716039;88;20213;-80
2021/03/17 20:52:49;;;;;;;12.45;3.95;;;4.60;99.90;;;;;;6698159;88;20183;-78
2021/03/17 21:02:49;;;;;;;9.55;3.20;;;4.20;99.90;;;;;;6695895;89;20250;-78
2021/03/17 21:12:51;;;;;;;7.75;3.30;;;3.90;99.90;;;;;;6701621;88;20196;-77
2021/03/17 21:22:54;;;;;;;8.63;3.78;;;3.80;99.90;;;;;;6712094;88;20195;-78
2021/03/17 21:32:56;;;;;;;12.20;4.37;;;3.50;99.90;;;;;;6707927;88;20266;-77
2021/03/17 21:42:58;;;;;;;11.93;4.60;;;3.30;99.90;;;;;;6710446;88;20209;-77
2021/03/17 21:52:58;;;;;;;10.02;4.37;;;3.00;99.90;;;;;;6708178;88;20181;-77
2021/03/17 22:02:59;;;;;;;13.27;4.45;;;3.00;99.90;;;;;;6703728;88;20710;-78
2021/03/17 22:13:00;;;;;;;14.50;4.30;;;2.80;99.90;;;;;;6707500;88;20492;-77
2021/03/17 22:23:03;;;;;;;11.82;4.18;;;2.70;99.90;;;;;;6706659;88;20204;-77
2021/03/17 22:33:04;;;;;;;9.18;4.18;;;2.80;99.90;;;;;;6698042;88;20194;-77
2021/03/17 22:43:05;;;;;;;7.97;3.40;;;2.50;99.90;;;;;;6709504;88;20445;-78
2021/03/17 22:53:06;;;;;;;11.60;3.40;;;2.40;99.90;;;;;;6708871;88;20225;-78
2021/03/17 23:03:07;;;;;;;5.72;3.17;;;2.40;99.90;;;;;;6709732;88;20198;-77
2021/03/17 23:13:08;;;;;;;9.20;3.30;;;2.10;99.90;;;;;;6705786;88;20194;-77
2021/03/17 23:23:08;;;;;;;6.47;3.00;;;2.00;99.90;;;;;;6710985;88;20206;-78
2021/03/17 23:33:09;;;;;;;6.80;3.37;;;2.20;99.90;;;;;;6713081;88;20197;-78
2021/03/17 23:43:10;;;;;;;7.97;3.33;;;1.70;99.90;;;;;;6709283;88;20194;-78
2021/03/17 23:53:15;;;;;;;10.88;3.12;;;2.30;99.90;;;;;;6677435;89;20826;-78
